MDSDMDPP

Guest
Details From MDSD - Las Americas Intl
To MDPP - Puerto Plata Gregorio Luperon Intl
Flight Number -
Tags generated
Created
Modified
Stats Distance 95 nm / 176 km
Max Altitude 7,000 ft / 2,134 m
Waypoints 4
Social Downloads 0
Likes 0
Share VATSIM

Download

Looking for another format? Having issues loading an existing format? Contact us
Advertisement - Login to hide

Notes

Basic altitude profile: - Ascent Rate: 2500ft/min - Ascent Speed: 250kts - Cruise Altitude: 35000ft - Cruise Speed: 420kts - Descent Rate: 1500ft/min - Descent Speed: 250kts Options: - Use NATs: yes - Use PACOTS: yes - Use low airways: yes - Use high airways: yes

Route

MDSD PISOR A554 PTA MDPP

ID Type Via Altitude Latitude Longitude Leg Dist Tot Dist Heading (true) Name
O MDSD APT - 0 ft / 0 m 18.42966˚ -69.66893˚ - 0 nm - Las Americas Intl
PISOR FIX - 6,300 ft / 1,920 m 19.34556˚ -70.28861˚ 65 nm 65 nm 327° / 327° -
PTA VOR A554 (AWY-LO) 7,000 ft / 2,134 m 19.75917˚ -70.57056˚ 29 nm 94 nm 327° / 327° PUERTO PLATA VOR-DME
O MDPP APT - 0 ft / 0 m 19.75790˚ -70.57003˚ 0 nm 94 nm 159° / 159° Puerto Plata Gregorio Luperon Intl

Altitude Profile

Advertisement - Login to hide

MDSD

Details ICAO MDSD (SDQ)
Name Las Americas Intl
Region Dominican Republic
Timezone America/Santo_Domingo (UTC-4.0)
Stats Elevation 59 ft / 18 m (AMSL)
Location 18.429662° -69.668925°
Runways 1
Magnetic Variation 11.536° W

METAR

MDSD 131100Z 06004KT 9999 SCT018 22/21 Q1014

Decode

TAF

Not found

Departure Runways

ID Width Length Bearing (true) Bearing (mag) Surface Threshold Offset Overrun Length
17 200 ft / 61 m 11,051 ft / 3,368 m 160.78° 172.32° Asphalt 0 ft / 0 m 0 ft / 0 m
35 200 ft / 61 m 11,051 ft / 3,368 m 340.79° 352.33° Asphalt 0 ft / 0 m 0 ft / 0 m

MDPP

Details ICAO MDPP (POP)
Name Puerto Plata Gregorio Luperon Intl
Region Dominican Republic
Timezone America/Santo_Domingo (UTC-4.0)
Stats Elevation 15 ft / 5 m (AMSL)
Location 19.757900° -70.570035°
Runways 1
Magnetic Variation 11.228° W

METAR

MDPP 131100Z 00000KT 9999 FEW018 BKN070 23/21 Q1013 METAR MDST 131100Z 11006KT 9999 SCT016 SCT080 20/20 Q1013 METAR MDPC 131100Z 00000KT 9999 FEW018 21/21 Q1014 NOSIG METAR MDBH 131100Z 16005KT 9999 FEW014CB FEW014 SCT300 20/19 Q1014 METAR CB/SE/NW

Decode

TAF

Not found

Destination Runways

ID Width Length Bearing (true) Bearing (mag) Surface Threshold Offset Overrun Length
08 151 ft / 46 m 10,101 ft / 3,079 m 72.95° 84.18° Asphalt 0 ft / 0 m 0 ft / 0 m
26 151 ft / 46 m 10,101 ft / 3,079 m 252.95° 264.18° Asphalt 0 ft / 0 m 0 ft / 0 m

Popular Alternatives